createdAt,value
2017-06-22T00:00:01.470Z,0
2017-06-22T00:01:00.584Z,0
2017-06-22T00:02:01.259Z,0
2017-06-22T00:03:00.650Z,0
2017-06-22T00:04:00.677Z,0
2017-06-22T00:05:01.007Z,0
2017-06-22T00:06:00.747Z,0
2017-06-22T00:07:01.088Z,0
2017-06-22T00:08:01.425Z,0
2017-06-22T00:09:01.609Z,0
2017-06-22T00:10:01.436Z,0
2017-06-22T00:11:01.228Z,0
2017-06-22T00:12:01.246Z,0
2017-06-22T00:13:00.966Z,0
2017-06-22T00:14:01.612Z,0
2017-06-22T00:15:01.943Z,0
2017-06-22T00:16:01.681Z,0
2017-06-22T00:17:01.401Z,0
2017-06-22T00:18:01.743Z,0
2017-06-22T00:19:01.447Z,0
2017-06-22T00:20:01.416Z,0
2017-06-22T00:21:01.516Z,0
2017-06-22T00:22:01.545Z,0
2017-06-22T00:23:01.587Z,0
2017-06-22T00:24:01.603Z,0
2017-06-22T00:25:02.258Z,0
2017-06-22T00:26:01.364Z,0
2017-06-22T00:27:01.078Z,0
2017-06-22T00:28:01.730Z,0
2017-06-22T00:29:02.079Z,0
2017-06-22T00:30:01.789Z,0
2017-06-22T00:31:01.837Z,0
2017-06-22T00:32:01.866Z,0
2017-06-22T00:33:01.896Z,0
2017-06-22T00:34:01.923Z,0
2017-06-22T00:35:02.205Z,0
2017-06-22T00:36:01.673Z,0
2017-06-22T00:37:01.710Z,0
2017-06-22T00:38:02.363Z,0
2017-06-22T00:39:02.087Z,0
2017-06-22T00:40:02.355Z,0
2017-06-22T00:41:02.160Z,0
2017-06-22T00:42:02.186Z,0
2017-06-22T00:43:01.887Z,0
2017-06-22T00:44:02.237Z,0
2017-06-22T00:45:02.879Z,0
2017-06-22T00:46:02.297Z,0
2017-06-22T00:47:02.334Z,0
2017-06-22T00:48:02.663Z,0
2017-06-22T00:49:02.696Z,0
2017-06-22T00:50:02.982Z,0
2017-06-22T00:51:02.463Z,0
2017-06-22T00:52:02.805Z,0
2017-06-22T00:53:02.809Z,0
2017-06-22T00:54:02.245Z,0
2017-06-22T00:55:03.133Z,0
2017-06-22T00:56:02.297Z,0
2017-06-22T00:57:02.983Z,0
2017-06-22T00:58:02.660Z,0
2017-06-22T00:59:03.017Z,0
2017-06-22T01:00:03.032Z,0
2017-06-22T01:01:02.762Z,0
2017-06-22T01:02:02.799Z,0
2017-06-22T01:03:03.136Z,0
2017-06-22T01:04:02.844Z,0
2017-06-22T01:05:03.142Z,0
2017-06-22T01:06:02.602Z,0
2017-06-22T01:07:02.943Z,0
2017-06-22T01:08:03.295Z,0
2017-06-22T01:09:03.316Z,0
2017-06-22T01:10:03.273Z,0
2017-06-22T01:11:03.070Z,0
2017-06-22T01:12:02.483Z,0
2017-06-22T01:13:03.132Z,0
2017-06-22T01:14:03.474Z,0
2017-06-22T01:15:02.563Z,0
2017-06-22T01:16:03.794Z,0
2017-06-22T01:17:03.556Z,0
2017-06-22T01:18:03.275Z,0
2017-06-22T01:19:03.634Z,0
2017-06-22T01:20:03.359Z,0
2017-06-22T01:21:03.358Z,0
2017-06-22T01:22:03.092Z,0
2017-06-22T01:23:03.132Z,0
2017-06-22T01:24:03.786Z,0
2017-06-22T01:25:03.503Z,0
2017-06-22T01:26:03.519Z,0
2017-06-22T01:27:03.868Z,0
2017-06-22T01:28:03.292Z,0
2017-06-22T01:29:03.622Z,0
2017-06-22T01:30:03.647Z,0
2017-06-22T01:31:03.364Z,0
2017-06-22T01:32:03.712Z,0
2017-06-22T01:33:03.742Z,0
2017-06-22T01:34:03.773Z,0
2017-06-22T01:35:03.498Z,0
2017-06-22T01:36:04.452Z,0
2017-06-22T01:37:03.880Z,0
2017-06-22T01:38:04.218Z,0
2017-06-22T01:39:03.937Z,0
2017-06-22T01:40:03.954Z,0
2017-06-22T01:41:04.627Z,0
2017-06-22T01:42:04.344Z,0
2017-06-22T01:43:04.053Z,0
2017-06-22T01:44:04.078Z,0
2017-06-22T01:45:04.115Z,0
2017-06-22T01:46:04.709Z,0
2017-06-22T01:47:04.182Z,0
2017-06-22T01:48:04.224Z,0
2017-06-22T01:49:04.242Z,0
2017-06-22T01:50:03.651Z,0
2017-06-22T01:51:04.248Z,0
2017-06-22T01:52:04.333Z,0
2017-06-22T01:53:04.349Z,0
2017-06-22T01:54:04.072Z,0
2017-06-22T01:55:04.740Z,0
2017-06-22T01:56:05.068Z,0
2017-06-22T01:57:04.799Z,0
2017-06-22T01:58:04.819Z,0
2017-06-22T01:59:04.535Z,0
2017-06-22T02:00:04.583Z,0
2017-06-22T02:01:04.614Z,0
2017-06-22T02:02:04.944Z,0
2017-06-22T02:03:04.997Z,0
2017-06-22T02:04:05.027Z,0
2017-06-22T02:05:04.726Z,0
2017-06-22T02:06:05.328Z,0
2017-06-22T02:07:05.101Z,0
2017-06-22T02:08:04.840Z,0
2017-06-22T02:09:04.851Z,0
2017-06-22T02:10:05.197Z,0
2017-06-22T02:11:05.214Z,0
2017-06-22T02:12:04.935Z,0
2017-06-22T02:13:04.975Z,0
2017-06-22T02:14:04.704Z,0
2017-06-22T02:15:05.025Z,0
2017-06-22T02:16:05.698Z,0
2017-06-22T02:17:05.106Z,0
2017-06-22T02:18:04.823Z,0
2017-06-22T02:19:05.464Z,0
2017-06-22T02:20:05.192Z,0
2017-06-22T02:21:05.206Z,0
2017-06-22T02:22:05.559Z,0
2017-06-22T02:23:05.596Z,0
2017-06-22T02:24:04.995Z,0
2017-06-22T02:25:04.716Z,0
2017-06-22T02:26:05.994Z,0
2017-06-22T02:27:05.398Z,0
2017-06-22T02:28:05.419Z,0
2017-06-22T02:29:05.777Z,0
2017-06-22T02:30:05.822Z,0
2017-06-22T02:31:05.786Z,0
2017-06-22T02:32:05.866Z,0
2017-06-22T02:33:04.978Z,0
2017-06-22T02:34:05.308Z,0
2017-06-22T02:35:05.653Z,0
2017-06-22T02:36:05.930Z,0
2017-06-22T02:37:05.398Z,0
2017-06-22T02:38:06.037Z,0
2017-06-22T02:39:05.800Z,0
2017-06-22T02:40:05.808Z,0
2017-06-22T02:41:05.814Z,0
2017-06-22T02:42:06.167Z,0
2017-06-22T02:43:05.904Z,0
2017-06-22T02:44:05.937Z,0
2017-06-22T02:45:05.639Z,0
2017-06-22T02:46:06.287Z,0
2017-06-22T02:47:05.706Z,0
2017-06-22T02:48:06.065Z,0
2017-06-22T02:49:05.461Z,0
2017-06-22T02:50:06.114Z,0
2017-06-22T02:51:06.077Z,0
2017-06-22T02:52:06.172Z,0
2017-06-22T02:53:06.204Z,0
2017-06-22T02:54:06.233Z,0
2017-06-22T02:55:05.958Z,0
2017-06-22T02:56:06.870Z,0
2017-06-22T02:57:06.332Z,0
2017-06-22T02:58:06.660Z,0
2017-06-22T02:59:06.077Z,0
2017-06-22T03:00:06.416Z,0
2017-06-22T03:01:06.742Z,0
2017-06-22T03:02:06.172Z,0
2017-06-22T03:03:06.187Z,0
2017-06-22T03:04:06.848Z,0
2017-06-22T03:05:06.250Z,0
2017-06-22T03:06:07.237Z,0
2017-06-22T03:07:06.644Z,0
2017-06-22T03:08:06.347Z,0
2017-06-22T03:09:06.694Z,0
2017-06-22T03:10:06.423Z,0
2017-06-22T03:11:07.002Z,0
2017-06-22T03:12:06.471Z,0
2017-06-22T03:13:07.135Z,0
2017-06-22T03:14:06.226Z,0
2017-06-22T03:15:06.571Z,0
2017-06-22T03:16:07.155Z,0
2017-06-22T03:17:06.953Z,0
2017-06-22T03:18:07.281Z,0
2017-06-22T03:19:07.324Z,0
2017-06-22T03:20:06.721Z,0
2017-06-22T03:21:07.670Z,0
2017-06-22T03:22:07.420Z,0
2017-06-22T03:23:06.814Z,0
2017-06-22T03:24:07.175Z,0
2017-06-22T03:25:07.183Z,0
2017-06-22T03:26:07.543Z,0
2017-06-22T03:27:07.239Z,0
2017-06-22T03:28:07.601Z,0
2017-06-22T03:29:07.610Z,0
2017-06-22T03:30:07.647Z,0
2017-06-22T03:31:07.688Z,0
2017-06-22T03:32:08.011Z,0
2017-06-22T03:33:07.428Z,0
2017-06-22T03:34:07.150Z,0
2017-06-22T03:35:07.803Z,0
2017-06-22T03:36:07.516Z,0
2017-06-22T03:37:07.849Z,0
2017-06-22T03:38:07.268Z,0
2017-06-22T03:39:07.615Z,0
2017-06-22T03:40:07.968Z,0
2017-06-22T03:41:07.673Z,0
2017-06-22T03:42:07.950Z,0
2017-06-22T03:43:08.046Z,0
2017-06-22T03:44:08.075Z,0
2017-06-22T03:45:08.124Z,0
2017-06-22T03:46:07.828Z,0
2017-06-22T03:47:08.486Z,0
2017-06-22T03:48:08.198Z,0
2017-06-22T03:49:08.235Z,0
2017-06-22T03:50:07.650Z,0
2017-06-22T03:51:07.973Z,0
2017-06-22T03:52:07.947Z,0
2017-06-22T03:53:08.057Z,0
2017-06-22T03:54:07.762Z,0
2017-06-22T03:55:08.424Z,0
2017-06-22T03:56:08.131Z,0
2017-06-22T03:57:08.726Z,0
2017-06-22T03:58:08.508Z,0
2017-06-22T03:59:08.521Z,0
2017-06-22T04:00:08.252Z,0
2017-06-22T04:01:08.604Z,0
2017-06-22T04:02:08.614Z,0
2017-06-22T04:03:08.334Z,0
2017-06-22T04:04:08.687Z,0
2017-06-22T04:05:08.717Z,0
2017-06-22T04:06:08.749Z,0
2017-06-22T04:07:09.026Z,0
2017-06-22T04:08:08.490Z,0
2017-06-22T04:09:08.851Z,0
2017-06-22T04:10:08.573Z,0
2017-06-22T04:11:08.277Z,0
2017-06-22T04:12:09.235Z,0
2017-06-22T04:13:08.342Z,0
2017-06-22T04:14:08.380Z,0
2017-06-22T04:15:08.717Z,0
2017-06-22T04:16:08.741Z,0
2017-06-22T04:17:09.030Z,0
2017-06-22T04:18:08.180Z,0
2017-06-22T04:19:08.832Z,0
2017-06-22T04:20:08.873Z,0
2017-06-22T04:21:08.570Z,0
2017-06-22T04:22:09.500Z,0
2017-06-22T04:23:08.970Z,0
2017-06-22T04:24:09.309Z,0
2017-06-22T04:25:09.021Z,0
2017-06-22T04:26:09.078Z,0
2017-06-22T04:27:09.331Z,0
2017-06-22T04:28:08.801Z,0
2017-06-22T04:29:09.456Z,0
2017-06-22T04:30:09.177Z,0
2017-06-22T04:31:09.210Z,0
2017-06-22T04:32:08.918Z,0
2017-06-22T04:33:08.953Z,0
2017-06-22T04:34:08.985Z,0
2017-06-22T04:35:09.640Z,0
2017-06-22T04:36:09.697Z,0
2017-06-22T04:37:10.032Z,0
2017-06-22T04:38:09.467Z,0
2017-06-22T04:39:09.449Z,0
2017-06-22T04:40:09.798Z,0
2017-06-22T04:41:09.826Z,0
2017-06-22T04:42:10.096Z,0
2017-06-22T04:43:09.889Z,0
2017-06-22T04:44:09.603Z,0
2017-06-22T04:45:09.630Z,0
2017-06-22T04:46:09.986Z,0
2017-06-22T04:47:09.933Z,0
2017-06-22T04:48:09.721Z,0
2017-06-22T04:49:08.801Z,0
2017-06-22T04:50:09.814Z,0
2017-06-22T04:51:10.131Z,5
2017-06-22T04:52:09.836Z,5
2017-06-22T04:53:10.192Z,5
2017-06-22T04:54:10.217Z,5
2017-06-22T04:55:09.931Z,5
2017-06-22T04:56:09.960Z,5
2017-06-22T04:57:10.564Z,5
2017-06-22T04:58:10.046Z,5
2017-06-22T04:59:10.057Z,5
2017-06-22T05:00:10.098Z,5
2017-06-22T05:01:10.108Z,5
2017-06-22T05:02:10.128Z,5
2017-06-22T05:03:10.172Z,5
2017-06-22T05:04:10.532Z,5
2017-06-22T05:05:10.235Z,5
2017-06-22T05:06:10.279Z,5
2017-06-22T05:07:10.916Z,5
2017-06-22T05:08:10.329Z,5
2017-06-22T05:09:10.062Z,5
2017-06-22T05:10:10.699Z,5
2017-06-22T05:11:10.427Z,5
2017-06-22T05:12:11.073Z,5
2017-06-22T05:13:10.489Z,5
2017-06-22T05:14:10.849Z,5
2017-06-22T05:15:10.539Z,5
2017-06-22T05:16:10.884Z,5
2017-06-22T05:17:11.232Z,5
2017-06-22T05:18:10.952Z,5
2017-06-22T05:19:10.975Z,5
2017-06-22T05:20:11.022Z,5
2017-06-22T05:21:11.053Z,5
2017-06-22T05:22:11.004Z,5
2017-06-22T05:23:11.098Z,5
2017-06-22T05:24:10.836Z,5
2017-06-22T05:25:11.168Z,5
2017-06-22T05:26:11.204Z,5
2017-06-22T05:27:11.484Z,5
2017-06-22T05:28:10.630Z,5
2017-06-22T05:29:10.975Z,5
2017-06-22T05:30:11.003Z,5
2017-06-22T05:31:11.364Z,5
2017-06-22T05:32:11.365Z,5
2017-06-22T05:33:11.098Z,5
2017-06-22T05:34:11.450Z,5
2017-06-22T05:35:11.471Z,5
2017-06-22T05:36:11.184Z,5
2017-06-22T05:37:11.833Z,5
2017-06-22T05:38:11.553Z,5
2017-06-22T05:39:11.591Z,5
2017-06-22T05:40:11.619Z,5
2017-06-22T05:41:11.650Z,5
2017-06-22T05:42:11.065Z,5
2017-06-22T05:43:11.986Z,5
2017-06-22T05:44:11.123Z,5
2017-06-22T05:45:11.155Z,5
2017-06-22T05:46:11.844Z,5
2017-06-22T05:47:11.838Z,5
2017-06-22T05:48:11.806Z,5
2017-06-22T05:49:11.611Z,5
2017-06-22T05:50:11.924Z,5
2017-06-22T05:51:11.669Z,5
2017-06-22T05:52:11.997Z,5
2017-06-22T05:53:12.271Z,5
2017-06-22T05:54:11.739Z,5
2017-06-22T05:55:11.461Z,5
2017-06-22T05:56:11.833Z,5
2017-06-22T05:57:11.830Z,5
2017-06-22T05:58:12.119Z,5
2017-06-22T05:59:11.269Z,5
2017-06-22T06:00:12.268Z,5
2017-06-22T06:01:12.277Z,5
2017-06-22T06:02:11.979Z,5
2017-06-22T06:03:11.971Z,5
2017-06-22T06:04:12.043Z,5
2017-06-22T06:05:12.392Z,5
2017-06-22T06:06:11.792Z,5
2017-06-22T06:07:12.142Z,5
2017-06-22T06:08:12.775Z,5
2017-06-22T06:09:12.514Z,5
2017-06-22T06:10:12.219Z,5
2017-06-22T06:11:12.255Z,5
2017-06-22T06:12:11.987Z,5
2017-06-22T06:13:12.884Z,5
2017-06-22T06:14:12.353Z,5
2017-06-22T06:15:12.073Z,5
2017-06-22T06:16:12.718Z,5
2017-06-22T06:17:12.139Z,5
2017-06-22T06:18:12.759Z,5
2017-06-22T06:19:12.524Z,5
2017-06-22T06:20:12.229Z,5
2017-06-22T06:21:12.574Z,5
2017-06-22T06:22:12.581Z,5
2017-06-22T06:23:13.252Z,5
2017-06-22T06:24:12.969Z,5
2017-06-22T06:25:12.670Z,5
2017-06-22T06:26:12.737Z,5
2017-06-22T06:27:12.751Z,5
2017-06-22T06:28:12.772Z,5
2017-06-22T06:29:12.812Z,5
2017-06-22T06:30:12.854Z,5
2017-06-22T06:31:12.861Z,5
2017-06-22T06:32:12.904Z,5
2017-06-22T06:33:13.484Z,5
2017-06-22T06:34:12.966Z,5
2017-06-22T06:35:12.726Z,10
2017-06-22T06:36:13.326Z,10
2017-06-22T06:37:13.067Z,10
2017-06-22T06:38:13.704Z,10
2017-06-22T06:39:13.439Z,10
2017-06-22T06:40:13.484Z,10
2017-06-22T06:41:13.494Z,10
2017-06-22T06:42:13.516Z,10
2017-06-22T06:43:13.868Z,10
2017-06-22T06:44:13.581Z,10
2017-06-22T06:45:13.621Z,10
2017-06-22T06:46:13.031Z,10
2017-06-22T06:47:13.045Z,10
2017-06-22T06:48:13.701Z,10
2017-06-22T06:49:13.413Z,10
2017-06-22T06:50:13.467Z,10
2017-06-22T06:51:12.851Z,10
2017-06-22T06:52:13.201Z,10
2017-06-22T06:53:13.216Z,10
2017-06-22T06:54:13.893Z,10
2017-06-22T06:55:13.299Z,10
2017-06-22T06:56:13.958Z,10
2017-06-22T06:57:13.679Z,10
2017-06-22T06:58:14.270Z,10
2017-06-22T06:59:13.726Z,10
2017-06-22T07:00:13.766Z,10
2017-06-22T07:01:14.107Z,10
2017-06-22T07:02:14.134Z,10
2017-06-22T07:03:14.430Z,10
2017-06-22T07:04:14.193Z,10
2017-06-22T07:05:14.218Z,10
2017-06-22T07:06:14.267Z,10
2017-06-22T07:07:13.971Z,10
2017-06-22T07:08:14.574Z,10
2017-06-22T07:09:14.351Z,10
2017-06-22T07:10:14.069Z,10
2017-06-22T07:11:14.438Z,10
2017-06-22T07:12:14.125Z,10
2017-06-22T07:13:14.469Z,10
2017-06-22T07:14:14.183Z,10
2017-06-22T07:15:13.912Z,10
2017-06-22T07:16:14.244Z,10
2017-06-22T07:17:14.605Z,10
2017-06-22T07:18:14.929Z,10
2017-06-22T07:19:14.354Z,10
2017-06-22T07:20:14.684Z,10
2017-06-22T07:21:14.407Z,10
2017-06-22T07:22:14.450Z,10
2017-06-22T07:23:14.457Z,10
2017-06-22T07:24:14.514Z,10
2017-06-22T07:25:14.631Z,10
2017-06-22T07:26:14.556Z,10
2017-06-22T07:27:14.609Z,10
2017-06-22T07:28:14.886Z,10
2017-06-22T07:29:14.659Z,10
2017-06-22T07:30:14.998Z,10
2017-06-22T07:31:15.032Z,10
2017-06-22T07:32:14.741Z,10
2017-06-22T07:33:15.081Z,10
2017-06-22T07:34:14.496Z,10
2017-06-22T07:35:14.868Z,10
2017-06-22T07:36:14.884Z,10
2017-06-22T07:37:14.913Z,10
2017-06-22T07:38:15.239Z,10
2017-06-22T07:39:15.279Z,10
2017-06-22T07:40:15.324Z,10
2017-06-22T07:41:15.024Z,10
2017-06-22T07:42:14.746Z,10
2017-06-22T07:43:15.661Z,15
2017-06-22T07:44:14.816Z,15
2017-06-22T07:45:14.853Z,15
2017-06-22T07:46:15.186Z,15
2017-06-22T07:47:15.522Z,15
2017-06-22T07:48:14.621Z,15
2017-06-22T07:49:15.847Z,15
2017-06-22T07:50:15.327Z,15
2017-06-22T07:51:15.342Z,15
2017-06-22T07:52:15.362Z,10
2017-06-22T07:53:15.090Z,15
2017-06-22T07:54:15.367Z,10
2017-06-22T07:55:15.769Z,15
2017-06-22T07:56:15.489Z,15
2017-06-22T07:57:15.534Z,15
2017-06-22T07:58:15.550Z,15
2017-06-22T07:59:15.881Z,15
2017-06-22T08:00:15.611Z,15
2017-06-22T08:01:15.950Z,15
2017-06-22T08:02:15.694Z,15
2017-06-22T08:03:15.715Z,15
2017-06-22T08:04:15.993Z,15
2017-06-22T08:05:15.769Z,15
2017-06-22T08:06:15.814Z,15
2017-06-22T08:07:16.146Z,15
2017-06-22T08:08:16.183Z,15
2017-06-22T08:09:16.192Z,15
2017-06-22T08:10:15.926Z,15
2017-06-22T08:11:16.207Z,15
2017-06-22T08:12:15.986Z,15
2017-06-22T08:13:16.323Z,15
2017-06-22T08:14:16.672Z,15
2017-06-22T08:15:16.397Z,15
2017-06-22T08:16:16.106Z,15
2017-06-22T08:17:16.440Z,15
2017-06-22T08:18:15.863Z,15
2017-06-22T08:19:16.140Z,15
2017-06-22T08:20:15.932Z,15
2017-06-22T08:21:16.578Z,15
2017-06-22T08:22:16.620Z,15
2017-06-22T08:23:16.640Z,15
2017-06-22T08:24:16.656Z,15
2017-06-22T08:25:16.466Z,15
2017-06-22T08:26:16.110Z,15
2017-06-22T08:27:16.463Z,15
2017-06-22T08:28:16.164Z,15
2017-06-22T08:29:17.126Z,15
2017-06-22T08:30:16.550Z,15
2017-06-22T08:31:16.579Z,15
2017-06-22T08:32:16.615Z,15
2017-06-22T08:33:16.643Z,15
2017-06-22T08:34:16.919Z,15
2017-06-22T08:35:16.999Z,15
2017-06-22T08:36:17.048Z,15
2017-06-22T08:37:17.084Z,20
2017-06-22T08:38:16.171Z,20
2017-06-22T08:39:17.089Z,20
2017-06-22T08:40:16.867Z,20
2017-06-22T08:41:16.879Z,20
2017-06-22T08:42:16.925Z,20
2017-06-22T08:43:16.953Z,20
2017-06-22T08:44:17.538Z,20
2017-06-22T08:45:17.331Z,20
2017-06-22T08:46:17.363Z,20
2017-06-22T08:47:17.110Z,20
2017-06-22T08:48:17.141Z,20
2017-06-22T08:49:17.382Z,20
2017-06-22T08:50:17.170Z,20
2017-06-22T08:51:17.192Z,20
2017-06-22T08:52:16.920Z,20
2017-06-22T08:53:17.274Z,20
2017-06-22T08:54:16.925Z,20
2017-06-22T08:55:17.635Z,20
2017-06-22T08:56:17.659Z,20
2017-06-22T08:57:17.080Z,20
2017-06-22T08:58:17.101Z,25
2017-06-22T08:59:18.058Z,25
2017-06-22T09:00:17.479Z,25
2017-06-22T09:01:17.511Z,25
2017-06-22T09:02:17.548Z,25
2017-06-22T09:03:17.883Z,25
2017-06-22T09:04:18.160Z,25
2017-06-22T09:05:17.938Z,25
2017-06-22T09:06:17.348Z,25
2017-06-22T09:07:18.014Z,25
2017-06-22T09:08:18.046Z,25
2017-06-22T09:09:18.373Z,25
2017-06-22T09:10:18.104Z,25
2017-06-22T09:11:17.836Z,25
2017-06-22T09:12:17.854Z,25
2017-06-22T09:13:17.883Z,25
2017-06-22T09:14:18.474Z,25
2017-06-22T09:15:17.641Z,30
2017-06-22T09:16:17.986Z,30
2017-06-22T09:17:18.331Z,30
2017-06-22T09:18:18.358Z,30
2017-06-22T09:19:18.697Z,30
2017-06-22T09:20:18.109Z,30
2017-06-22T09:21:18.128Z,30
2017-06-22T09:22:17.869Z,30
2017-06-22T09:23:17.894Z,30
2017-06-22T09:24:18.235Z,30
2017-06-22T09:25:18.813Z,30
2017-06-22T09:26:17.977Z,30
2017-06-22T09:27:18.645Z,30
2017-06-22T09:28:18.333Z,35
2017-06-22T09:29:18.703Z,35
2017-06-22T09:30:18.668Z,40
2017-06-22T09:31:18.757Z,40
2017-06-22T09:32:18.168Z,40
2017-06-22T09:33:18.514Z,40
2017-06-22T09:34:18.880Z,40
2017-06-22T09:35:18.510Z,35
2017-06-22T09:36:18.921Z,35
2017-06-22T09:37:18.950Z,40
2017-06-22T09:38:18.987Z,40
2017-06-22T09:39:18.695Z,45
2017-06-22T09:40:18.976Z,50
2017-06-22T09:41:18.756Z,50
2017-06-22T09:42:18.173Z,50
2017-06-22T09:43:19.138Z,45
2017-06-22T09:44:18.540Z,45
2017-06-22T09:45:19.207Z,45
2017-06-22T09:46:18.921Z,45
2017-06-22T09:47:18.958Z,40
2017-06-22T09:48:19.296Z,40
2017-06-22T09:49:19.000Z,40
2017-06-22T09:50:19.041Z,40
2017-06-22T09:51:19.074Z,35
2017-06-22T09:52:19.097Z,35
2017-06-22T09:53:19.443Z,35
2017-06-22T09:54:19.472Z,40
2017-06-22T09:55:19.456Z,35
2017-06-22T09:56:19.543Z,40
2017-06-22T09:57:19.582Z,40
2017-06-22T09:58:19.600Z,35
2017-06-22T09:59:19.642Z,40
2017-06-22T10:00:19.980Z,45
2017-06-22T10:01:19.708Z,35
2017-06-22T10:02:19.427Z,35
2017-06-22T10:03:19.764Z,35
2017-06-22T10:04:19.796Z,30
2017-06-22T10:05:20.118Z,25
2017-06-22T10:06:19.530Z,30
2017-06-22T10:07:19.258Z,35
2017-06-22T10:08:19.611Z,35
2017-06-22T10:09:19.343Z,40
2017-06-22T10:10:20.282Z,40
2017-06-22T10:11:20.023Z,40
2017-06-22T10:12:20.047Z,40
2017-06-22T10:13:20.083Z,40
2017-06-22T10:14:19.169Z,45
2017-06-22T10:15:20.117Z,45
2017-06-22T10:16:20.176Z,45
2017-06-22T10:17:20.247Z,45
2017-06-22T10:18:19.291Z,45
2017-06-22T10:19:19.936Z,50
2017-06-22T10:20:20.614Z,50
2017-06-22T10:21:20.346Z,50
2017-06-22T10:22:20.363Z,55
2017-06-22T10:23:20.397Z,50
2017-06-22T10:24:20.113Z,55
2017-06-22T10:25:20.757Z,50
2017-06-22T10:26:20.182Z,50
2017-06-22T10:27:20.211Z,55
2017-06-22T10:28:20.537Z,55
2017-06-22T10:29:20.611Z,55
2017-06-22T10:30:20.870Z,55
2017-06-22T10:31:20.647Z,55
2017-06-22T10:32:20.660Z,50
2017-06-22T10:33:20.716Z,50
2017-06-22T10:34:20.496Z,50
2017-06-22T10:35:21.024Z,50
2017-06-22T10:36:20.503Z,50
2017-06-22T10:37:20.516Z,55
2017-06-22T10:38:20.881Z,55
2017-06-22T10:39:20.585Z,55
2017-06-22T10:40:21.237Z,55
2017-06-22T10:41:20.651Z,55
2017-06-22T10:42:20.982Z,55
2017-06-22T10:43:20.725Z,60
2017-06-22T10:44:21.065Z,60
2017-06-22T10:45:20.761Z,60
2017-06-22T10:46:21.118Z,60
2017-06-22T10:47:20.544Z,60
2017-06-22T10:48:20.868Z,60
2017-06-22T10:49:21.221Z,65
2017-06-22T10:50:20.874Z,60
2017-06-22T10:51:20.978Z,60
2017-06-22T10:52:21.326Z,65
2017-06-22T10:53:21.045Z,55
2017-06-22T10:54:21.061Z,40
2017-06-22T10:55:21.350Z,40
2017-06-22T10:56:20.817Z,55
2017-06-22T10:57:21.475Z,65
2017-06-22T10:58:20.873Z,60
2017-06-22T10:59:21.217Z,60
2017-06-22T11:00:21.823Z,60
2017-06-22T11:01:21.602Z,65
2017-06-22T11:02:21.631Z,65
2017-06-22T11:03:21.660Z,60
2017-06-22T11:04:21.705Z,65
2017-06-22T11:05:21.415Z,70
2017-06-22T11:06:21.384Z,75
2017-06-22T11:07:21.476Z,65
2017-06-22T11:08:21.508Z,65
2017-06-22T11:09:21.550Z,60
2017-06-22T11:10:21.907Z,60
2017-06-22T11:11:21.904Z,70
2017-06-22T11:12:21.948Z,65
2017-06-22T11:13:21.694Z,70
2017-06-22T11:14:22.047Z,80
2017-06-22T11:15:22.063Z,55
2017-06-22T11:16:21.713Z,55
2017-06-22T11:17:22.145Z,70
2017-06-22T11:18:22.137Z,85
2017-06-22T11:19:21.862Z,90
2017-06-22T11:20:21.889Z,75
2017-06-22T11:21:22.496Z,85
2017-06-22T11:22:21.966Z,75
2017-06-22T11:23:22.306Z,50
2017-06-22T11:24:22.328Z,45
2017-06-22T11:25:22.034Z,40
2017-06-22T11:26:22.325Z,40
2017-06-22T11:27:22.134Z,55
2017-06-22T11:28:22.466Z,90
2017-06-22T11:29:21.859Z,100
2017-06-22T11:30:21.591Z,140
2017-06-22T11:31:22.805Z,300
2017-06-22T11:32:22.265Z,60
2017-06-22T11:33:22.309Z,410
2017-06-22T11:34:22.355Z,350
2017-06-22T11:35:22.368Z,110
2017-06-22T11:36:22.029Z,15
2017-06-22T11:37:22.435Z,10
2017-06-22T11:38:22.778Z,10
2017-06-22T11:39:22.219Z,10
2017-06-22T11:40:22.844Z,10
2017-06-22T11:41:22.501Z,5
2017-06-22T11:42:22.913Z,5
2017-06-22T11:43:22.922Z,15
2017-06-22T11:44:22.656Z,20
2017-06-22T11:45:22.688Z,20
2017-06-22T11:46:23.329Z,15
2017-06-22T11:47:23.083Z,5
2017-06-22T11:48:23.090Z,5
2017-06-22T11:49:23.133Z,0
2017-06-22T11:50:22.849Z,0
2017-06-22T11:51:23.452Z,0
2017-06-22T11:52:23.228Z,0
2017-06-22T11:53:22.930Z,0
2017-06-22T11:54:23.294Z,0
2017-06-22T11:55:23.331Z,0
2017-06-22T11:56:23.349Z,0
2017-06-22T11:57:23.065Z,0
2017-06-22T11:58:22.798Z,0
2017-06-22T11:59:23.131Z,0
2017-06-22T12:00:22.861Z,0
2017-06-22T12:01:23.797Z,0
2017-06-22T12:02:23.234Z,0
2017-06-22T12:03:23.574Z,0
2017-06-22T12:04:22.988Z,0
2017-06-22T12:05:23.016Z,0
2017-06-22T12:06:23.613Z,0
2017-06-22T12:07:23.389Z,0
2017-06-22T12:08:23.738Z,0
2017-06-22T12:09:23.450Z,0
2017-06-22T12:10:23.167Z,0
2017-06-22T12:11:23.817Z,0
2017-06-22T12:12:22.922Z,0
2017-06-22T12:13:23.587Z,0
2017-06-22T12:14:23.278Z,0
2017-06-22T12:15:23.641Z,0
2017-06-22T12:16:23.938Z,5
2017-06-22T12:17:23.710Z,5
2017-06-22T12:18:24.056Z,5
2017-06-22T12:19:23.456Z,5
2017-06-22T12:20:24.125Z,5
2017-06-22T12:21:24.133Z,5
2017-06-22T12:22:24.176Z,5
2017-06-22T12:23:23.272Z,5
2017-06-22T12:24:23.616Z,5
2017-06-22T12:25:24.282Z,5
2017-06-22T12:26:24.278Z,10
2017-06-22T12:27:23.718Z,10
2017-06-22T12:28:24.383Z,10
2017-06-22T12:29:24.085Z,10
2017-06-22T12:30:24.441Z,10
2017-06-22T12:31:24.758Z,10
2017-06-22T12:32:24.190Z,10
2017-06-22T12:33:24.539Z,5
2017-06-22T12:34:24.560Z,5
2017-06-22T12:35:24.576Z,0
2017-06-22T12:36:24.009Z,0
2017-06-22T12:37:24.594Z,0
2017-06-22T12:38:24.680Z,0
2017-06-22T12:39:24.416Z,0
2017-06-22T12:40:24.437Z,0
2017-06-22T12:41:24.795Z,5
2017-06-22T12:42:25.060Z,5
2017-06-22T12:43:24.553Z,5
2017-06-22T12:44:24.876Z,5
2017-06-22T12:45:24.914Z,5
2017-06-22T12:46:24.621Z,5
2017-06-22T12:47:24.969Z,5
2017-06-22T12:48:25.463Z,5
2017-06-22T12:49:25.037Z,5
2017-06-22T12:50:25.066Z,5
2017-06-22T12:51:24.474Z,10
2017-06-22T12:52:25.417Z,10
2017-06-22T12:53:24.855Z,10
2017-06-22T12:54:25.184Z,15
2017-06-22T12:55:25.229Z,25
2017-06-22T12:56:25.250Z,20
2017-06-22T12:57:25.578Z,25
2017-06-22T12:58:24.999Z,40
2017-06-22T12:59:25.352Z,45
2017-06-22T13:00:25.376Z,35
2017-06-22T13:01:25.402Z,45
2017-06-22T13:02:25.424Z,45
2017-06-22T13:03:24.856Z,45
2017-06-22T13:04:25.496Z,155
2017-06-22T13:05:25.218Z,60
2017-06-22T13:06:25.242Z,60
2017-06-22T13:07:25.530Z,75
2017-06-22T13:08:25.312Z,230
2017-06-22T13:09:25.661Z,115
2017-06-22T13:10:25.702Z,110
2017-06-22T13:11:25.715Z,70
2017-06-22T13:12:25.744Z,80
2017-06-22T13:13:25.784Z,85
2017-06-22T13:14:25.218Z,65
2017-06-22T13:15:25.542Z,40
2017-06-22T13:16:25.890Z,30
2017-06-22T13:17:25.860Z,25
2017-06-22T13:18:25.939Z,40
2017-06-22T13:19:25.982Z,40
2017-06-22T13:20:26.002Z,35
2017-06-22T13:21:26.051Z,135
2017-06-22T13:22:26.012Z,85
2017-06-22T13:23:25.796Z,110
2017-06-22T13:24:26.130Z,60
2017-06-22T13:25:25.847Z,20
2017-06-22T13:26:25.891Z,25
2017-06-22T13:27:26.167Z,20
2017-06-22T13:28:25.947Z,20
2017-06-22T13:29:26.306Z,25
2017-06-22T13:30:26.011Z,35
2017-06-22T13:31:26.056Z,35
2017-06-22T13:32:26.332Z,30
2017-06-22T13:33:26.434Z,35
2017-06-22T13:34:26.454Z,110
2017-06-22T13:35:26.499Z,65
2017-06-22T13:36:25.587Z,25
2017-06-22T13:37:26.808Z,20
2017-06-22T13:38:26.598Z,15
2017-06-22T13:39:26.621Z,15
2017-06-22T13:40:26.651Z,15
2017-06-22T13:41:26.368Z,15
2017-06-22T13:42:26.704Z,15
2017-06-22T13:43:26.753Z,10
2017-06-22T13:44:26.775Z,10
2017-06-22T13:45:26.807Z,5
2017-06-22T13:46:26.528Z,5
2017-06-22T13:47:27.125Z,5
2017-06-22T13:48:26.898Z,5
2017-06-22T13:49:26.319Z,5
2017-06-22T13:50:26.955Z,5
2017-06-22T13:51:26.684Z,5
2017-06-22T13:52:27.265Z,5
2017-06-22T13:53:26.741Z,5
2017-06-22T13:54:26.778Z,5
2017-06-22T13:55:26.808Z,5
2017-06-22T13:56:26.844Z,5
2017-06-22T13:57:27.433Z,5
2017-06-22T13:58:27.218Z,5
2017-06-22T13:59:27.248Z,5
2017-06-22T14:00:27.280Z,10
2017-06-22T14:01:27.012Z,15
2017-06-22T14:02:27.282Z,20
2017-06-22T14:03:27.379Z,20
2017-06-22T14:04:27.414Z,20
2017-06-22T14:05:27.135Z,20
2017-06-22T14:06:27.480Z,15
2017-06-22T14:07:27.749Z,10
2017-06-22T14:08:27.226Z,10
2017-06-22T14:09:27.565Z,20
2017-06-22T14:10:27.295Z,85
2017-06-22T14:11:26.997Z,45
2017-06-22T14:12:27.651Z,20
2017-06-22T14:13:27.706Z,15
2017-06-22T14:14:27.091Z,15
2017-06-22T14:15:27.744Z,15
2017-06-22T14:16:27.788Z,25
2017-06-22T14:17:28.127Z,25
2017-06-22T14:18:27.226Z,30
2017-06-22T14:19:27.882Z,30
2017-06-22T14:20:27.624Z,30
2017-06-22T14:21:27.656Z,25
2017-06-22T14:22:28.272Z,25
2017-06-22T14:23:27.395Z,25
2017-06-22T14:24:27.723Z,25
2017-06-22T14:25:27.768Z,30
2017-06-22T14:26:27.796Z,40
2017-06-22T14:27:28.437Z,60
2017-06-22T14:28:27.868Z,115
2017-06-22T14:29:27.888Z,120
2017-06-22T14:30:28.236Z,110
2017-06-22T14:31:27.954Z,110